Historyczne dane pomiarowe

Dodano dane terminowe – wersja testowa.

Dane z okresu 1951-2019

Wersja bazy: 1.34 [2019-03-16, lista zmian], aktualizacja planowana na 2019-04-15

Dane meteo z obszaru Polski uzyskane na podstawie danych udostępnionych przez Instytut Meteorologii i Gospodarki Wodnej – Państwowy Instytut Badawczy.

 

Wybierz Datę:    

       

TemperaturaWilgotnośćWiatrCiśnienieOpadyŚniegCzas trwania zjawisk
 Stacja t tx tn tng RH VA  wxwx mslp ppp RRR   cm mm wxwxwxwxwxwxwx
1983-08-14 13.4 18.5 7.7--- 4.7 3.3---- 0.6------------
1983-08-13 14.3 19.1 12.8--- 6.7 5.0---- 0.8------------
1983-08-12 19.9 26.7 15.3--- 1.0 1.7---- 3.2------------
1983-08-11 20.0 24.1 14.6--- 3.7 0.7---- 0.0------------
1983-08-10 18.4 25.2 11.5--- 4.0 1.3---- 5.0------------
1983-08-09 19.4 25.5 14.5--- 5.7 2.3---- 1.0------------
1983-08-08 18.9 24.5 14.2--- 6.7 1.0---- 14.5------------
1983-08-07 17.4 23.4 14.0--- 6.0 2.0---- 4.0------------
1983-08-06 15.2 20.2 9.0--- 5.7 0.7---- 9.4------------
1983-08-05 12.8 16.4 10.0--- 6.3 1.3---- 0.0------------
1983-08-04 12.3 21.6 10.8--- 8.0 3.3---- 17.6------------
1983-08-03 20.0 24.0 16.3--- 8.0 1.7---- 7.2------------
1983-08-02 20.8 29.3 12.1--- 3.0 2.7---- 8.0------------
1983-08-01 18.5 25.7 7.9--- 1.0 3.3---- 0.0------------
1983-07-31 17.9 23.8 9.0--- 2.7 0.7---- 0.0------------
1983-07-30 17.4 22.4 13.8--- 5.3 4.7---- 0.0------------
1983-07-29 18.4 25.2 12.6--- 5.3 2.3---- 0.0------------
1983-07-28 22.3 28.2 17.6--- 3.7 2.7---- 0.0------------
1983-07-27 22.6 30.7 14.1--- 2.3 0.7---- 0.0------------
1983-07-26 19.7 26.9 12.5--- 4.7 1.3---- 0.0------------
1983-07-25 14.7 20.3 7.5--- 5.7 1.0---- 0.0------------
1983-07-24 15.4 18.4 13.0--- 5.7 1.7---- 5.4------------
1983-07-23 15.4 19.5 11.6--- 5.3 3.3---- 0.4------------
1983-07-22 13.0 16.5 9.6--- 7.3 4.3---- 0.2------------
1983-07-21 13.0 17.7 8.9--- 5.7 4.3---- 0.0------------
1983-07-20 15.8 21.6 12.3--- 6.7 3.0---- 2.4------------
1983-07-19 22.8 28.1 17.4--- 2.7 1.7---- 3.2------------
1983-07-18 20.5 28.6 9.8--- 1.3 1.3---- 0.0------------
1983-07-17 20.1 25.6 15.7--- 3.7 1.0---- 0.0------------
1983-07-16 20.5 27.4 12.0--- 3.7 1.3---- 0.0------------
1983-07-15 18.3 24.9 10.7--- 1.3 1.0---- 0.0------------
1983-07-14 17.6 21.2 15.3--- 8.0 2.0---- 22.3------------
1983-07-13 18.2 27.8 12.6--- 6.3 2.0---- 33.7------------
1983-07-12 18.8 25.8 15.6--- 6.0 4.0---- 3.3------------
1983-07-11 20.4 26.5 15.4--- 4.0 2.0---- 6.9------------
1983-07-10 21.2 28.5 12.7--- 1.0 2.7---- 0.0------------
1983-07-09 20.5 28.3 10.4--- 2.7 2.3---- 0.0------------
1983-07-08 18.4 26.6 7.3--- 0.7 2.0---- 0.0------------
1983-07-07 19.9 27.1 10.2--- 0.0 1.7---- 0.0------------
1983-07-06 19.8 27.3 8.8--- 0.3 2.0---- 0.0------------
1983-07-05 18.7 25.6 10.7--- 0.3 1.3---- 0.0------------
1983-07-04 18.3 25.3 8.5--- 1.7 1.3---- 0.0------------
1983-07-03 17.2 23.3 9.1--- 2.3 0.7---- 0.0------------
1983-07-02 17.8 23.6 11.2--- 3.7 3.3---- 0.0------------
1983-07-01 17.5 25.2 7.8--- 3.7 0.7---- 0.0------------
1983-06-30 15.4 22.2 4.9--- 2.0 2.0---- 0.0------------
1983-06-29 13.9 19.6 7.2--- 1.3 1.3---- 0.0------------
1983-06-28 15.6 21.2 13.3--- 7.3 2.3---- 2.4------------
1983-06-27 19.1 26.9 11.1--- 8.0 3.0---- 15.4------------
1983-06-26 19.9 25.7 15.7--- 2.7 1.7---- 0.0------------
1983-06-25 20.9 27.8 10.8--- 2.7 4.0---- 1.5------------
1983-06-24 16.5 26.1 4.0--- 0.0 1.3---- 0.0------------
1983-06-23 13.0 19.4 2.5--- 0.0 1.3---- 0.0------------
1983-06-22 12.8 20.0 7.6--- 0.7 2.0---- 0.0------------
1983-06-21 18.1 24.2 9.5--- 2.0 2.3---- 0.0------------
1983-06-20 18.4 23.3 14.1--- 4.3 2.7---- 0.0------------
1983-06-19 14.9 17.6 12.4--- 8.0 4.3---- 0.4------------
1983-06-18 12.2 14.2 10.8--- 8.0 4.0---- 6.0------------
1983-06-17 12.4 17.2 6.6--- 6.7 4.3---- 1.4------------
1983-06-16 11.6 14.4 9.9--- 8.0 3.7---- 0.0------------
314.6 ms

 

Źródłem pochodzenia danych jest Instytut Meteorologii i Gospodarki Wodnej – Państwowy Instytut Badawczy. Dane Instytutu Meteorologii i Gospodarki Wodnej – Państwowego Instytutu Badawczego zostały przetworzone.

Dane źródłowe można odnaleźć na stronie https://dane.imgw.pl